PKWA TAF

85.8 °F / 29.9 °C
E at 20 MPH
63%
71.8°F / 22.1 °C
29.84" (1010 mb)
10 mile(s)
partly cloudy

PKWA TAF

2017/02/24 06:27
TAF PKWA 240521Z 2406/2506 07013G23KT P6SM VCSH FEW025 SCT050